createdAt,value
2022-09-01T00:00:15.181Z,100444.22
2022-09-01T00:02:45.646Z,100443.31
2022-09-01T00:05:14.684Z,100446.81
2022-09-01T00:07:46.310Z,100452.94
2022-09-01T00:10:18.730Z,100452.06
2022-09-01T00:12:49.622Z,100437.97
2022-09-01T00:15:18.445Z,100448.50
2022-09-01T00:17:47.265Z,100441.44
2022-09-01T00:20:20.127Z,100437.03
2022-09-01T00:22:51.284Z,100439.66
2022-09-01T00:25:21.179Z,100433.47
2022-09-01T00:27:51.027Z,100441.38
2022-09-01T00:30:20.203Z,100437.00
2022-09-01T00:32:49.521Z,100440.47
2022-09-01T00:35:20.783Z,100444.84
2022-09-01T00:37:50.994Z,100441.31
2022-09-01T00:40:20.280Z,100441.31
2022-09-01T00:42:49.431Z,100435.09
2022-09-01T00:45:19.333Z,100443.00
2022-09-01T00:47:50.926Z,100448.25
2022-09-01T00:50:21.411Z,100441.19
2022-09-01T00:52:54.592Z,100439.41
2022-09-01T00:55:27.806Z,100429.72
2022-09-01T00:57:57.236Z,100437.63
2022-09-01T01:00:31.738Z,100434.03
2022-09-01T01:03:00.446Z,100430.50
2022-09-01T01:05:36.479Z,100433.16
2022-09-01T01:08:08.300Z,100436.63
2022-09-01T01:10:41.288Z,100427.81
2022-09-01T01:13:14.064Z,100429.53
2022-09-01T01:15:43.954Z,100425.13
2022-09-01T01:18:13.502Z,100422.47
2022-09-01T01:21:00.134Z,100419.84
2022-09-01T01:23:40.400Z,100426.81
2022-09-01T01:26:12.554Z,100423.31
2022-09-01T01:28:44.396Z,100422.41
2022-09-01T01:31:16.418Z,100424.19
2022-09-01T01:33:48.947Z,100428.56
2022-09-01T01:36:22.756Z,100426.84
2022-09-01T01:38:53.197Z,100425.91
2022-09-01T01:41:24.274Z,100432.00
2022-09-01T01:43:52.918Z,100430.25
2022-09-01T01:46:22.812Z,100428.44
2022-09-01T01:48:52.494Z,100422.28
2022-09-01T01:51:25.049Z,100431.00
2022-09-01T01:53:55.317Z,100444.09
2022-09-01T01:56:26.260Z,100430.00
2022-09-01T01:58:56.568Z,100439.69
2022-09-01T02:01:29.066Z,100436.13
2022-09-01T02:04:00.406Z,100440.47
2022-09-01T02:06:34.654Z,100449.25
2022-09-01T02:09:05.213Z,100439.53
2022-09-01T02:11:37.496Z,100442.09
2022-09-01T02:14:09.411Z,100442.03
2022-09-01T02:16:38.623Z,100446.38
2022-09-01T02:19:10.605Z,100442.84
2022-09-01T02:21:55.877Z,100438.38
2022-09-01T02:24:26.513Z,100444.47
2022-09-01T02:26:59.297Z,100442.72
2022-09-01T02:29:29.439Z,100442.66
2022-09-01T02:31:58.587Z,100455.78
2022-09-01T02:34:29.113Z,100445.22
2022-09-01T02:37:00.736Z,100447.81
2022-09-01T02:39:33.661Z,100449.53
2022-09-01T02:42:04.733Z,100446.81
2022-09-01T02:44:36.263Z,100447.59
2022-09-01T02:47:09.931Z,100447.53
2022-09-01T02:49:38.815Z,100447.50
2022-09-01T02:52:08.180Z,100456.22
2022-09-01T02:54:37.108Z,100445.63
2022-09-01T02:57:09.102Z,100446.47
2022-09-01T02:59:43.119Z,100449.94
2022-09-01T03:02:12.338Z,100443.75
2022-09-01T03:04:41.044Z,100438.47
2022-09-01T03:07:10.599Z,100451.63
2022-09-01T03:09:41.585Z,100444.53
2022-09-01T03:12:11.704Z,100448.94
2022-09-01T03:14:40.372Z,100441.84
2022-09-01T03:17:09.164Z,100447.06
2022-09-01T03:19:45.254Z,100443.53
2022-09-01T03:22:14.419Z,100454.00
2022-09-01T03:24:43.513Z,100450.47
2022-09-01T03:27:13.818Z,100452.22
2022-09-01T03:29:42.664Z,100455.66
2022-09-01T03:32:11.425Z,100462.66
2022-09-01T03:34:40.203Z,100458.22
2022-09-01T03:37:09.734Z,100454.72
2022-09-01T03:39:38.594Z,100460.81
2022-09-01T03:42:10.945Z,100444.06
2022-09-01T03:44:45.285Z,100443.19
2022-09-01T03:47:17.041Z,100451.06
2022-09-01T03:49:47.143Z,100450.13
2022-09-01T03:52:18.161Z,100451.88
2022-09-01T03:54:47.021Z,100455.38
2022-09-01T03:57:15.989Z,100449.28
2022-09-01T03:59:47.099Z,100448.44
2022-09-01T04:02:16.957Z,100448.44
2022-09-01T04:04:45.551Z,100452.84
2022-09-01T04:07:18.940Z,100456.34
2022-09-01T04:09:47.986Z,100444.91
2022-09-01T04:12:17.268Z,100448.44
2022-09-01T04:14:52.564Z,100443.19
2022-09-01T04:17:38.682Z,100447.53
2022-09-01T04:20:09.515Z,100449.25
2022-09-01T04:22:38.887Z,100446.63
2022-09-01T04:25:09.333Z,100453.63
2022-09-01T04:27:40.405Z,100435.19
2022-09-01T04:30:12.437Z,100437.81
2022-09-01T04:32:46.818Z,100445.63
2022-09-01T04:35:17.117Z,100439.44
2022-09-01T04:37:47.611Z,100443.78
2022-09-01T04:40:17.665Z,100443.75
2022-09-01T04:42:48.232Z,100448.16
2022-09-01T04:45:27.937Z,100442.00
2022-09-01T04:47:56.954Z,100449.84
2022-09-01T04:50:26.195Z,100445.44
2022-09-01T04:53:13.516Z,100443.63
2022-09-01T04:55:47.172Z,100443.63
2022-09-01T04:58:20.575Z,100448.84
2022-09-01T05:00:53.128Z,100451.44
2022-09-01T05:03:24.361Z,100450.53
2022-09-01T05:06:15.699Z,100454.84
2022-09-01T05:08:52.188Z,100450.41
2022-09-01T05:11:39.759Z,100460.84
2022-09-01T05:14:20.063Z,100452.94
2022-09-01T05:16:51.289Z,100457.34
2022-09-01T05:19:20.968Z,100448.50
2022-09-01T05:21:50.629Z,100452.88
2022-09-01T05:24:22.377Z,100448.53
2022-09-01T05:26:51.044Z,100449.34
2022-09-01T05:29:21.128Z,100451.09
2022-09-01T05:31:52.695Z,100452.81
2022-09-01T05:34:26.433Z,100454.50
2022-09-01T05:36:59.294Z,100458.84
2022-09-01T05:39:28.826Z,100454.41
2022-09-01T05:41:59.911Z,100459.66
2022-09-01T05:44:28.673Z,100450.88
2022-09-01T05:47:00.536Z,100460.47
2022-09-01T05:49:33.276Z,100452.53
2022-09-01T05:52:05.404Z,100463.91
2022-09-01T05:54:34.827Z,100463.91
2022-09-01T05:57:30.451Z,100456.03
2022-09-01T05:59:56.171Z,100452.47
2022-09-01T06:02:29.440Z,100457.75
2022-09-01T06:05:00.325Z,100462.13
2022-09-01T06:07:38.108Z,100466.44
2022-09-01T06:10:09.446Z,100465.53
2022-09-01T06:12:38.715Z,100473.34
2022-09-01T06:15:16.076Z,100472.41
2022-09-01T06:17:49.795Z,100476.81
2022-09-01T06:20:19.316Z,100473.28
2022-09-01T06:22:48.956Z,100475.03
2022-09-01T06:25:18.775Z,100477.66
2022-09-01T06:27:49.484Z,100481.09
2022-09-01T06:30:24.095Z,100480.19
2022-09-01T06:33:14.217Z,100480.16
2022-09-01T06:35:49.271Z,100487.94
2022-09-01T06:38:22.067Z,100483.50
2022-09-01T06:41:14.443Z,100479.94
2022-09-01T06:43:44.555Z,100481.72
2022-09-01T06:46:18.319Z,100479.13
2022-09-01T06:48:49.432Z,100489.69
2022-09-01T06:51:22.262Z,100491.50
2022-09-01T06:54:14.564Z,100493.19
2022-09-01T06:56:51.231Z,100487.09
2022-09-01T06:59:23.336Z,100478.25
2022-09-01T07:02:01.302Z,100492.31
2022-09-01T07:04:49.986Z,100486.25
2022-09-01T07:10:28.093Z,100485.44
2022-09-01T07:13:19.902Z,100485.53
2022-09-01T07:20:28.697Z,100491.59
2022-09-01T07:45:25.471Z,100483.97
2022-09-01T07:47:52.653Z,100487.63
2022-09-01T07:53:20.134Z,100484.44
2022-09-01T07:55:50.784Z,100481.06
2022-09-01T07:58:23.919Z,100480.28
2022-09-01T08:01:02.808Z,100476.00
2022-09-01T08:03:32.475Z,100473.44
2022-09-01T08:06:07.819Z,100475.34
2022-09-01T08:08:41.365Z,100473.69
2022-09-01T08:11:10.306Z,100479.03
2022-09-01T08:13:41.990Z,100470.38
2022-09-01T08:16:19.550Z,100474.84
2022-09-01T08:18:50.481Z,100479.31
2022-09-01T08:21:29.403Z,100469.78
2022-09-01T08:24:01.850Z,100474.25
2022-09-01T08:26:31.833Z,100483.97
2022-09-01T08:29:03.782Z,100480.56
2022-09-01T08:31:38.079Z,100488.53
2022-09-01T08:34:07.140Z,100482.53
2022-09-01T08:36:36.100Z,100478.25
2022-09-01T08:39:06.228Z,100481.88
2022-09-01T08:41:47.127Z,100482.84
2022-09-01T08:44:31.057Z,100475.88
2022-09-01T08:47:07.110Z,100479.47
2022-09-01T08:49:45.878Z,100482.09
2022-09-01T08:52:42.484Z,100490.97
2022-09-01T08:55:22.047Z,100474.38
2022-09-01T08:57:57.081Z,100477.97
2022-09-01T09:00:33.382Z,100460.44
2022-09-01T09:03:22.608Z,100470.16
2022-09-01T09:06:12.167Z,100468.50
2022-09-01T09:08:56.767Z,100465.09
2022-09-01T09:11:53.536Z,100465.16
2022-09-01T09:14:39.521Z,100455.59
2022-09-01T09:17:11.049Z,100465.34
2022-09-01T09:19:42.621Z,100448.72
2022-09-01T09:22:14.398Z,100452.28
2022-09-01T09:24:53.347Z,100455.00
2022-09-01T09:27:28.099Z,100455.91
2022-09-01T09:30:04.192Z,100444.50
2022-09-01T09:35:42.029Z,100437.56
2022-09-01T09:38:28.435Z,100435.84
2022-09-01T09:41:25.437Z,100430.63
2022-09-01T09:44:01.093Z,100435.94
2022-09-01T09:46:37.860Z,100439.50
2022-09-01T09:49:32.576Z,100436.91
2022-09-01T09:52:18.255Z,100421.19
2022-09-01T09:55:22.845Z,100423.03
2022-09-01T09:57:54.940Z,100418.72
2022-09-01T10:00:27.309Z,100412.63
2022-09-01T10:03:01.476Z,100407.47
2022-09-01T10:05:43.218Z,100406.59
2022-09-01T10:08:16.563Z,100413.69
2022-09-01T10:10:57.605Z,100397.03
2022-09-01T10:13:31.400Z,100402.34
2022-09-01T10:16:05.668Z,100400.69
2022-09-01T10:18:41.445Z,100398.09
2022-09-01T10:21:17.239Z,100399.84
2022-09-01T10:23:45.916Z,100399.00
2022-09-01T10:26:21.054Z,100390.22
2022-09-01T10:28:56.131Z,100400.81
2022-09-01T10:31:29.576Z,100393.78
2022-09-01T10:34:05.925Z,100393.78
2022-09-01T10:36:37.820Z,100379.75
2022-09-01T10:39:12.191Z,100385.06
2022-09-01T10:42:00.678Z,100375.41
2022-09-01T10:44:35.734Z,100379.81
2022-09-01T10:47:14.592Z,100378.94
2022-09-01T10:50:07.632Z,100377.22
2022-09-01T10:52:59.163Z,100371.06
2022-09-01T10:55:34.992Z,100368.50
2022-09-01T11:01:13.337Z,100372.94
2022-09-01T11:04:01.398Z,100359.75
2022-09-01T11:07:26.879Z,100364.19
2022-09-01T11:10:33.635Z,100364.19
2022-09-01T11:13:36.242Z,100358.94
2022-09-01T11:16:49.560Z,100365.13
2022-09-01T11:19:44.424Z,100362.50
2022-09-01T11:22:36.263Z,100362.47
2022-09-01T11:25:40.227Z,100360.81
2022-09-01T11:28:43.629Z,100363.44
2022-09-01T11:31:26.532Z,100352.91
2022-09-01T11:34:11.016Z,100357.31
2022-09-01T11:36:55.783Z,100358.16
2022-09-01T11:39:42.500Z,100351.13
2022-09-01T11:42:23.033Z,100356.41
2022-09-01T11:44:57.741Z,100361.72
2022-09-01T11:47:30.572Z,100359.09
2022-09-01T11:50:02.508Z,100359.94
2022-09-01T11:52:36.650Z,100352.03
2022-09-01T11:55:08.196Z,100338.81
2022-09-01T11:57:40.505Z,100343.22
2022-09-01T12:00:13.293Z,100346.75
2022-09-01T12:02:47.175Z,100334.38
2022-09-01T12:05:37.763Z,100335.28
2022-09-01T12:08:15.130Z,100335.31
2022-09-01T12:10:44.915Z,100330.91
2022-09-01T12:13:21.367Z,100330.91
2022-09-01T12:16:17.009Z,100316.78
2022-09-01T12:18:48.964Z,100319.41
2022-09-01T12:21:24.140Z,100314.13
2022-09-01T12:23:53.492Z,100313.25
2022-09-01T12:26:32.342Z,100306.19
2022-09-01T12:29:02.729Z,100300.00
2022-09-01T12:31:31.675Z,100312.34
2022-09-01T12:34:02.438Z,100301.78
2022-09-01T12:36:34.823Z,100307.06
2022-09-01T12:39:22.977Z,100308.78
2022-09-01T12:42:25.215Z,100292.03
2022-09-01T12:44:58.589Z,100288.50
2022-09-01T12:47:51.261Z,100299.94
2022-09-01T12:50:46.195Z,100285.84
2022-09-01T12:53:32.526Z,100289.34
2022-09-01T12:56:20.068Z,100280.47
2022-09-01T12:58:54.724Z,100286.66
2022-09-01T13:01:32.700Z,100275.16
2022-09-01T13:04:24.574Z,100279.56
2022-09-01T13:06:54.024Z,100273.41
2022-09-01T13:09:22.693Z,100283.09
2022-09-01T13:12:07.449Z,100297.16
2022-09-01T13:14:36.417Z,100272.44
2022-09-01T13:17:14.083Z,100268.91
2022-09-01T13:19:43.291Z,100274.16
2022-09-01T13:22:12.157Z,100270.63
2022-09-01T13:24:41.023Z,100263.56
2022-09-01T13:27:26.620Z,100271.50
2022-09-01T13:29:55.778Z,100257.38
2022-09-01T13:32:25.775Z,100259.09
2022-09-01T13:34:55.902Z,100259.97
2022-09-01T13:37:25.480Z,100260.81
2022-09-01T13:39:54.033Z,100249.34
2022-09-01T13:42:27.050Z,100248.41
2022-09-01T13:44:57.605Z,100247.53
2022-09-01T13:47:29.852Z,100240.44
2022-09-01T13:50:08.912Z,100240.38
2022-09-01T13:52:40.624Z,100239.50
2022-09-01T13:55:12.439Z,100234.16
2022-09-01T13:57:41.374Z,100236.81
2022-09-01T14:00:15.719Z,100229.69
2022-09-01T14:02:50.286Z,100224.38
2022-09-01T14:05:21.075Z,100222.56
2022-09-01T14:07:50.094Z,100220.81
2022-09-01T14:10:19.868Z,100234.91
2022-09-01T14:12:49.049Z,100218.09
2022-09-01T14:15:26.469Z,100229.59
2022-09-01T14:17:58.498Z,100218.16
2022-09-01T14:20:33.373Z,100220.75
2022-09-01T14:23:06.682Z,100217.22
2022-09-01T14:25:35.672Z,100217.22
2022-09-01T14:28:05.219Z,100211.88
2022-09-01T14:30:35.379Z,100211.84
2022-09-01T14:33:07.825Z,100216.28
2022-09-01T14:35:40.947Z,100215.44
2022-09-01T14:38:10.364Z,100205.75
2022-09-01T14:40:41.512Z,100208.38
2022-09-01T14:43:12.698Z,100203.09
2022-09-01T14:45:44.691Z,100222.50
2022-09-01T14:48:17.103Z,100204.78
2022-09-01T14:50:49.065Z,100209.19
2022-09-01T14:53:19.117Z,100208.28
2022-09-01T14:55:49.589Z,100201.19
2022-09-01T14:58:19.983Z,100205.63
2022-09-01T15:00:48.875Z,100191.47
2022-09-01T15:03:22.561Z,100195.91
2022-09-01T15:05:51.488Z,100190.59
2022-09-01T15:08:20.248Z,100184.41
2022-09-01T15:10:49.194Z,100199.44
2022-09-01T15:13:17.765Z,100191.50
2022-09-01T15:15:46.508Z,100188.88
2022-09-01T15:18:15.056Z,100193.41
2022-09-01T15:20:48.829Z,100188.13
2022-09-01T15:23:21.580Z,100183.72
2022-09-01T15:25:55.168Z,100174.94
2022-09-01T15:28:24.062Z,100182.00
2022-09-01T15:30:54.404Z,100184.66
2022-09-01T15:33:23.063Z,100175.00
2022-09-01T15:35:53.867Z,100175.88
2022-09-01T15:38:27.167Z,100175.88
2022-09-01T15:41:01.017Z,100179.44
2022-09-01T15:43:30.197Z,100175.91
2022-09-01T15:46:00.635Z,100169.75
2022-09-01T15:48:30.235Z,100176.81
2022-09-01T15:51:32.540Z,100169.75
2022-09-01T15:54:04.124Z,100163.56
2022-09-01T15:56:33.052Z,100170.63
2022-09-01T15:59:03.600Z,100170.63
2022-09-01T16:01:36.226Z,100162.69
2022-09-01T16:04:06.818Z,100172.38
2022-09-01T16:06:37.041Z,100164.44
2022-09-01T16:09:07.367Z,100165.38
2022-09-01T16:11:37.166Z,100159.19
2022-09-01T16:14:06.367Z,100166.31
2022-09-01T16:16:51.851Z,100152.19
2022-09-01T16:19:34.052Z,100161.94
2022-09-01T16:22:14.609Z,100162.81
2022-09-01T16:24:46.515Z,100160.19
2022-09-01T16:27:19.998Z,100152.28
2022-09-01T16:29:52.402Z,100154.91
2022-09-01T16:32:23.402Z,100148.75
2022-09-01T16:34:53.320Z,100149.63
2022-09-01T16:37:41.126Z,100148.75
2022-09-01T16:40:26.255Z,100147.88
2022-09-01T16:43:02.958Z,100141.69
2022-09-01T16:45:46.645Z,100153.16
2022-09-01T16:48:23.574Z,100149.66
2022-09-01T16:51:00.473Z,100141.72
2022-09-01T16:53:54.137Z,100147.06
2022-09-01T16:56:31.325Z,100146.19
2022-09-01T17:01:54.539Z,100148.84
2022-09-01T17:04:38.488Z,100149.75
2022-09-01T17:07:29.536Z,100142.75
2022-09-01T17:10:06.255Z,100148.94
2022-09-01T17:12:43.024Z,100145.41
2022-09-01T17:15:15.796Z,100149.81
2022-09-01T17:17:51.598Z,100150.69
2022-09-01T17:20:24.954Z,100140.09
2022-09-01T17:22:59.054Z,100142.75
2022-09-01T17:25:37.209Z,100147.16
2022-09-01T17:28:12.057Z,100150.72
2022-09-01T17:30:50.156Z,100156.03
2022-09-01T17:33:28.833Z,100147.25
2022-09-01T17:36:13.958Z,100156.06
2022-09-01T17:38:54.369Z,100147.25
2022-09-01T17:41:35.460Z,100149.88
2022-09-01T17:44:16.648Z,100145.50
2022-09-01T17:46:53.998Z,100151.69
2022-09-01T17:49:29.877Z,100146.44
2022-09-01T17:52:07.630Z,100146.44
2022-09-01T17:54:44.712Z,100149.13
2022-09-01T17:57:24.855Z,100142.06
2022-09-01T18:00:01.575Z,100142.97
2022-09-01T18:03:19.118Z,100143.00
2022-09-01T18:06:00.839Z,100155.31
2022-09-01T18:08:40.319Z,100138.59
2022-09-01T18:11:15.229Z,100143.88
2022-09-01T18:13:53.772Z,100150.09
2022-09-01T18:16:27.179Z,100150.09
2022-09-01T18:18:59.137Z,100148.34
2022-09-01T18:21:35.204Z,100151.88
2022-09-01T18:24:16.579Z,100155.41
2022-09-01T18:26:49.264Z,100158.03
2022-09-01T18:29:20.407Z,100160.69
2022-09-01T18:32:08.875Z,100162.47
2022-09-01T18:35:11.592Z,100165.16
2022-09-01T18:37:58.056Z,100169.56
2022-09-01T18:40:33.752Z,100172.22
2022-09-01T18:43:14.349Z,100170.44
2022-09-01T18:45:52.767Z,100163.38
2022-09-01T18:51:11.931Z,100174.00
2022-09-01T18:53:47.662Z,100173.13
2022-09-01T18:56:35.540Z,100169.59
2022-09-01T18:59:37.039Z,100177.53
2022-09-01T19:02:27.082Z,100182.81
2022-09-01T19:05:01.385Z,100181.06
2022-09-01T19:07:39.085Z,100184.59
2022-09-01T19:10:18.316Z,100182.84
2022-09-01T19:12:56.479Z,100180.19
2022-09-01T19:15:32.724Z,100182.00
2022-09-01T19:18:25.987Z,100193.44
2022-09-01T19:21:02.518Z,100187.25
2022-09-01T19:23:43.082Z,100199.59
2022-09-01T19:26:21.184Z,100190.78
2022-09-01T19:28:54.119Z,100194.31
2022-09-01T19:31:27.436Z,100193.41
2022-09-01T19:34:01.529Z,100190.78
2022-09-01T19:36:38.754Z,100194.28
2022-09-01T19:39:09.930Z,100201.38
2022-09-01T19:41:45.469Z,100198.72
2022-09-01T19:44:23.653Z,100211.06
2022-09-01T19:46:57.406Z,100205.78
2022-09-01T19:49:38.488Z,100196.97
2022-09-01T19:52:12.028Z,100210.19
2022-09-01T19:54:52.030Z,100209.28
2022-09-01T19:57:28.620Z,100203.16
2022-09-01T20:00:08.945Z,100205.78
2022-09-01T20:02:42.903Z,100197.88
2022-09-01T20:05:30.403Z,100200.53
2022-09-01T20:08:04.535Z,100194.34
2022-09-01T20:10:58.890Z,100197.00
2022-09-01T20:13:58.629Z,100198.75
2022-09-01T20:16:33.775Z,100197.88
2022-09-01T20:19:10.314Z,100203.16
2022-09-01T20:21:48.010Z,100207.56
2022-09-01T20:24:26.640Z,100201.41
2022-09-01T20:27:07.251Z,100197.91
2022-09-01T20:29:46.986Z,100198.78
2022-09-01T20:32:26.468Z,100200.56
2022-09-01T20:35:00.295Z,100199.66
2022-09-01T20:37:38.561Z,100201.41
2022-09-01T20:40:15.723Z,100196.16
2022-09-01T20:43:03.841Z,100197.03
2022-09-01T20:45:33.206Z,100189.97
2022-09-01T20:48:06.459Z,100190.84
2022-09-01T20:50:43.082Z,100189.06
2022-09-01T20:53:28.357Z,100197.00
2022-09-01T20:56:04.510Z,100202.28
2022-09-01T20:58:43.502Z,100199.66
2022-09-01T21:01:20.354Z,100196.09
2022-09-01T21:04:03.074Z,100199.66
2022-09-01T21:06:54.503Z,100200.50
2022-09-01T21:09:38.062Z,100198.75
2022-09-01T21:12:14.599Z,100199.63
2022-09-01T21:14:56.469Z,100195.25
2022-09-01T21:17:42.160Z,100201.38
2022-09-01T21:20:19.484Z,100205.78
2022-09-01T21:22:50.343Z,100202.25
2022-09-01T21:25:20.395Z,100202.25
2022-09-01T21:27:57.482Z,100200.53
2022-09-01T21:30:27.245Z,100200.50
2022-09-01T21:32:57.084Z,100209.28
2022-09-01T21:35:25.865Z,100197.88
2022-09-01T21:37:54.659Z,100192.56
2022-09-01T21:40:26.674Z,100204.91
2022-09-01T21:43:00.349Z,100192.59
2022-09-01T21:45:29.468Z,100201.38
2022-09-01T21:47:58.173Z,100196.06
2022-09-01T21:50:27.674Z,100193.44
2022-09-01T21:52:56.387Z,100196.97
2022-09-01T21:55:26.700Z,100193.47
2022-09-01T21:57:55.495Z,100196.03
2022-09-01T22:00:27.645Z,100194.28
2022-09-01T22:02:57.656Z,100191.66
2022-09-01T22:05:29.386Z,100195.16
2022-09-01T22:07:58.952Z,100190.75
2022-09-01T22:10:31.616Z,100195.13
2022-09-01T22:13:03.549Z,100188.09
2022-09-01T22:15:32.728Z,100195.16
2022-09-01T22:18:01.332Z,100184.56
2022-09-01T22:20:32.003Z,100189.84
2022-09-01T22:23:02.066Z,100185.44
2022-09-01T22:25:33.991Z,100181.03
2022-09-01T22:28:05.055Z,100183.66
2022-09-01T22:30:34.849Z,100182.78
2022-09-01T22:33:07.618Z,100187.19
2022-09-01T22:35:36.368Z,100184.53
2022-09-01T22:38:04.929Z,100182.78
2022-09-01T22:40:35.425Z,100167.81
2022-09-01T22:43:05.661Z,100186.28
2022-09-01T22:45:34.413Z,100175.72
2022-09-01T22:48:03.045Z,100173.06
2022-09-01T22:50:31.628Z,100176.59
2022-09-01T22:53:00.177Z,100181.00
2022-09-01T22:55:29.018Z,100182.72
2022-09-01T22:57:58.928Z,100180.97
2022-09-01T23:00:27.479Z,100184.50
2022-09-01T23:02:57.162Z,100173.94
2022-09-01T23:05:25.957Z,100175.66
2022-09-01T23:07:54.767Z,100172.16
2022-09-01T23:10:23.982Z,100169.47
2022-09-01T23:12:52.582Z,100176.50
2022-09-01T23:15:22.573Z,100164.19
2022-09-01T23:17:51.362Z,100163.28
2022-09-01T23:20:20.287Z,100151.00
2022-09-01T23:22:48.876Z,100158.03
2022-09-01T23:25:18.454Z,100153.59
2022-09-01T23:27:47.136Z,100167.66
2022-09-01T23:30:16.945Z,100154.47
2022-09-01T23:32:46.936Z,100157.97
2022-09-01T23:35:16.443Z,100149.16
2022-09-01T23:37:45.178Z,100149.16
2022-09-01T23:40:14.258Z,100154.41
2022-09-01T23:42:43.460Z,100155.31
2022-09-01T23:45:13.053Z,100152.66
2022-09-01T23:47:42.474Z,100147.38
2022-09-01T23:50:13.162Z,100145.59
2022-09-01T23:52:41.737Z,100137.72
2022-09-01T23:55:11.106Z,100143.84
2022-09-01T23:57:39.765Z,100136.81
